Terminal Aerodrome Forecast
Issued by NWS

Home | Current Version | Previous Version | Graphics & Text | Print | Product List | Glossary On
Versions: 1 2 3 4 5 6 7 8 9 10 11 12 13 14 15 16 17 18
000
FTUS43 KABR 022337
TAFATY
TAF
KATY 022337Z 0300/0324 18016G24KT P6SM SKC
     FM030700 20013KT P6SM VCTS BKN050CB OVC120
     FM031100 27010KT 5SM BR BKN025
     FM031500 34008KT 4SM BR SCT030=

USA.gov is the U.S. government's official web portal to all federal, state and local government web resources and services.